Adams, WI

3:09 PM CST on February 08, 2016 (GMT -0600)
Rural Adams County, WI | | Change Station
CLOSE
Current Station
Personal Weather Station
Location: Grand Marsh, WI
Elevation: 951 ft
Nearby Weather Stations

Elev 951 ft 43.83 °N, 89.78 °W | Updated 2 seconds ago

Overcast
Overcast
22.1 °F
Feels Like 16 °F
N
4.9
Wind Variable Wind from NW
Gusts 10.7 mph

Today
High -- | Low -- °F
--% Chance of Precip.
Yesterday
High -- | Low -- °F
Precip. -- in
Pressure 29.81 in
Visibility 10.0 miles
Clouds Overcast 2400 ft
Windchill 16 °F
Dew Point 9 °F
Humidity 57%
Rainfall 0.24 in
Snow Depth Not available.
7:08 AM 5:18 PM
New Moon, 0% visible
METAR KVOK 082058Z 30013KT 10SM OVC024 M06/M09 A2976 RMK AO2A SLP095 53006
Pressure 29.81 in
Visibility 10.0 miles
Clouds Overcast 2400 ft
Windchill 16 °F
Dew Point 9 °F
Humidity 57%
Rainfall 0.24 in
Snow Depth Not available.
7:08 AM 5:18 PM
New Moon, 0% visible
METAR KVOK 082058Z 30013KT 10SM OVC024 M06/M09 A2976 RMK AO2A SLP095 53006

10-Day Weather Forecast

Almanac

Astronomy

Feb. 08, 2016 Rise Set
Actual Time
Civil Twilight
Nautical Twilight
Astronomical Twilight
Moon
Length of Visible Light
Length of Day
Tomorrow will be .
, % of the Moon is Illuminated

Today's Extremes

State Highs State Lows

Community

WunderPhotos

Upload Photos

1,891,514 photos uploaded!

WunderBlog® & News

Nearby

Air Quality

  Air Quality AQ Index Pollutant
Not available.

Snow Depth

Station Depth Elevation

Earthquake Activity

City Distance Mag. Time & Date
Minimum magnitude displayed is 2.5.

Coastal Water Temperatures

Place Temperature

Stations

Nearby Weather Stations

Station Location Temp. Windchill Dew Point Humidity Wind Precip. Elev Updated Type
                   

Watches & Warnings

There are currently no watches in effect.